sensor_id;sensor_type;location;lat;lon;timestamp;P1;durP1;ratioP1;P2;durP2;ratioP2
20150;SDS011;10236;49.638;6.830;2023-04-03T00:03:58;6.37;;;3.13;;
20150;SDS011;10236;49.638;6.830;2023-04-03T00:07:01;6.43;;;3.07;;
20150;SDS011;10236;49.638;6.830;2023-04-03T00:13:05;4.93;;;3.10;;
20150;SDS011;10236;49.638;6.830;2023-04-03T00:15:32;4.43;;;3.13;;
20150;SDS011;10236;49.638;6.830;2023-04-03T00:21:22;7.67;;;3.33;;
20150;SDS011;10236;49.638;6.830;2023-04-03T00:24:14;5.13;;;3.20;;
20150;SDS011;10236;49.638;6.830;2023-04-03T01:48:17;3.87;;;2.80;;
20150;SDS011;10236;49.638;6.830;2023-04-03T01:51:08;5.67;;;3.07;;
20150;SDS011;10236;49.638;6.830;2023-04-03T02:03:18;7.53;;;3.33;;
20150;SDS011;10236;49.638;6.830;2023-04-03T02:06:05;5.07;;;3.20;;
20150;SDS011;10236;49.638;6.830;2023-04-03T02:08:31;5.57;;;3.50;;
20150;SDS011;10236;49.638;6.830;2023-04-03T02:11:11;5.63;;;3.53;;
20150;SDS011;10236;49.638;6.830;2023-04-03T02:22:49;5.77;;;3.20;;
20150;SDS011;10236;49.638;6.830;2023-04-03T02:53:10;4.83;;;3.10;;
20150;SDS011;10236;49.638;6.830;2023-04-03T02:55:43;5.40;;;2.97;;
20150;SDS011;10236;49.638;6.830;2023-04-03T02:58:42;4.70;;;3.20;;
20150;SDS011;10236;49.638;6.830;2023-04-03T03:01:34;6.70;;;3.60;;
20150;SDS011;10236;49.638;6.830;2023-04-03T03:04:03;6.60;;;3.90;;
20150;SDS011;10236;49.638;6.830;2023-04-03T03:06:29;4.50;;;3.07;;
20150;SDS011;10236;49.638;6.830;2023-04-03T03:08:55;4.37;;;3.03;;
20150;SDS011;10236;49.638;6.830;2023-04-03T03:11:21;3.97;;;3.57;;
20150;SDS011;10236;49.638;6.830;2023-04-03T03:13:50;6.00;;;3.57;;
20150;SDS011;10236;49.638;6.830;2023-04-03T03:16:17;4.17;;;2.70;;
20150;SDS011;10236;49.638;6.830;2023-04-03T03:18:43;5.47;;;3.50;;
20150;SDS011;10236;49.638;6.830;2023-04-03T03:21:08;6.23;;;3.67;;
20150;SDS011;10236;49.638;6.830;2023-04-03T03:23:35;6.07;;;3.33;;
20150;SDS011;10236;49.638;6.830;2023-04-03T03:26:03;8.47;;;2.87;;
20150;SDS011;10236;49.638;6.830;2023-04-03T03:28:29;4.87;;;2.90;;
20150;SDS011;10236;49.638;6.830;2023-04-03T03:30:57;6.20;;;3.40;;
20150;SDS011;10236;49.638;6.830;2023-04-03T03:33:23;3.47;;;2.70;;
20150;SDS011;10236;49.638;6.830;2023-04-03T03:35:50;6.33;;;3.33;;
20150;SDS011;10236;49.638;6.830;2023-04-03T03:38:16;7.33;;;3.60;;
20150;SDS011;10236;49.638;6.830;2023-04-03T03:40:42;4.40;;;3.13;;
20150;SDS011;10236;49.638;6.830;2023-04-03T03:43:11;5.13;;;3.10;;
20150;SDS011;10236;49.638;6.830;2023-04-03T03:45:37;5.97;;;3.50;;
20150;SDS011;10236;49.638;6.830;2023-04-03T03:48:03;6.07;;;3.50;;
20150;SDS011;10236;49.638;6.830;2023-04-03T03:50:29;6.67;;;3.63;;
20150;SDS011;10236;49.638;6.830;2023-04-03T03:52:55;8.47;;;3.37;;
20150;SDS011;10236;49.638;6.830;2023-04-03T03:55:24;5.07;;;3.27;;
20150;SDS011;10236;49.638;6.830;2023-04-03T03:57:50;3.77;;;2.80;;
20150;SDS011;10236;49.638;6.830;2023-04-03T04:00:16;4.63;;;3.07;;
20150;SDS011;10236;49.638;6.830;2023-04-03T04:02:42;7.37;;;2.77;;
20150;SDS011;10236;49.638;6.830;2023-04-03T04:05:08;6.43;;;2.80;;
20150;SDS011;10236;49.638;6.830;2023-04-03T04:07:34;5.37;;;3.07;;
20150;SDS011;10236;49.638;6.830;2023-04-03T04:10:00;4.13;;;2.70;;
20150;SDS011;10236;49.638;6.830;2023-04-03T04:12:27;7.40;;;3.10;;
20150;SDS011;10236;49.638;6.830;2023-04-03T04:14:52;4.67;;;2.80;;
20150;SDS011;10236;49.638;6.830;2023-04-03T04:17:18;6.20;;;2.97;;
20150;SDS011;10236;49.638;6.830;2023-04-03T04:19:45;5.43;;;3.10;;
20150;SDS011;10236;49.638;6.830;2023-04-03T04:22:11;3.53;;;2.83;;
20150;SDS011;10236;49.638;6.830;2023-04-03T04:24:37;7.77;;;3.30;;
20150;SDS011;10236;49.638;6.830;2023-04-03T04:27:03;4.90;;;2.90;;
20150;SDS011;10236;49.638;6.830;2023-04-03T04:29:29;4.87;;;2.80;;
20150;SDS011;10236;49.638;6.830;2023-04-03T04:32:00;4.67;;;2.53;;
20150;SDS011;10236;49.638;6.830;2023-04-03T04:34:25;5.70;;;2.90;;
20150;SDS011;10236;49.638;6.830;2023-04-03T04:36:51;3.80;;;2.70;;
20150;SDS011;10236;49.638;6.830;2023-04-03T04:39:18;4.10;;;2.70;;
20150;SDS011;10236;49.638;6.830;2023-04-03T04:41:43;5.07;;;3.37;;
20150;SDS011;10236;49.638;6.830;2023-04-03T04:44:09;5.63;;;2.60;;
20150;SDS011;10236;49.638;6.830;2023-04-03T04:46:35;4.27;;;2.50;;
20150;SDS011;10236;49.638;6.830;2023-04-03T04:49:01;5.10;;;2.87;;
20150;SDS011;10236;49.638;6.830;2023-04-03T04:51:27;6.73;;;2.53;;
20150;SDS011;10236;49.638;6.830;2023-04-03T04:53:53;5.67;;;2.10;;
20150;SDS011;10236;49.638;6.830;2023-04-03T04:56:19;3.87;;;1.90;;
20150;SDS011;10236;49.638;6.830;2023-04-03T04:58:45;3.93;;;2.53;;
20150;SDS011;10236;49.638;6.830;2023-04-03T05:01:11;7.23;;;3.03;;
20150;SDS011;10236;49.638;6.830;2023-04-03T05:03:37;5.80;;;2.50;;
20150;SDS011;10236;49.638;6.830;2023-04-03T05:06:04;8.37;;;2.60;;
20150;SDS011;10236;49.638;6.830;2023-04-03T05:08:33;5.40;;;2.63;;
20150;SDS011;10236;49.638;6.830;2023-04-03T05:11:01;5.30;;;3.00;;
20150;SDS011;10236;49.638;6.830;2023-04-03T05:13:27;5.67;;;2.87;;
20150;SDS011;10236;49.638;6.830;2023-04-03T05:15:53;6.03;;;2.77;;
20150;SDS011;10236;49.638;6.830;2023-04-03T05:18:19;7.93;;;3.20;;
20150;SDS011;10236;49.638;6.830;2023-04-03T05:20:45;4.70;;;2.77;;
20150;SDS011;10236;49.638;6.830;2023-04-03T05:23:11;12.00;;;3.77;;
20150;SDS011;10236;49.638;6.830;2023-04-03T05:25:37;10.40;;;2.80;;
20150;SDS011;10236;49.638;6.830;2023-04-03T05:28:03;5.13;;;2.97;;
20150;SDS011;10236;49.638;6.830;2023-04-03T05:30:29;6.20;;;2.70;;
20150;SDS011;10236;49.638;6.830;2023-04-03T05:32:55;6.90;;;2.67;;
20150;SDS011;10236;49.638;6.830;2023-04-03T05:35:21;5.17;;;2.60;;
20150;SDS011;10236;49.638;6.830;2023-04-03T05:37:47;3.87;;;2.40;;
20150;SDS011;10236;49.638;6.830;2023-04-03T05:40:13;6.50;;;2.57;;
20150;SDS011;10236;49.638;6.830;2023-04-03T05:42:39;8.73;;;2.80;;
20150;SDS011;10236;49.638;6.830;2023-04-03T05:45:05;6.90;;;2.80;;
20150;SDS011;10236;49.638;6.830;2023-04-03T05:47:31;4.27;;;2.40;;
20150;SDS011;10236;49.638;6.830;2023-04-03T05:49:57;4.77;;;2.80;;
20150;SDS011;10236;49.638;6.830;2023-04-03T05:52:25;8.33;;;3.23;;
20150;SDS011;10236;49.638;6.830;2023-04-03T05:54:52;5.70;;;2.47;;
20150;SDS011;10236;49.638;6.830;2023-04-03T05:57:18;4.50;;;2.70;;
20150;SDS011;10236;49.638;6.830;2023-04-03T05:59:45;5.87;;;3.00;;
20150;SDS011;10236;49.638;6.830;2023-04-03T06:02:12;4.00;;;2.57;;
20150;SDS011;10236;49.638;6.830;2023-04-03T06:04:38;5.73;;;2.57;;
20150;SDS011;10236;49.638;6.830;2023-04-03T06:07:04;3.40;;;2.20;;
20150;SDS011;10236;49.638;6.830;2023-04-03T06:09:30;8.27;;;3.30;;
20150;SDS011;10236;49.638;6.830;2023-04-03T06:11:56;6.67;;;2.70;;
20150;SDS011;10236;49.638;6.830;2023-04-03T06:14:23;5.30;;;2.70;;
20150;SDS011;10236;49.638;6.830;2023-04-03T06:16:50;6.33;;;3.10;;
20150;SDS011;10236;49.638;6.830;2023-04-03T06:19:19;5.60;;;2.93;;
20150;SDS011;10236;49.638;6.830;2023-04-03T06:21:48;5.43;;;2.90;;
20150;SDS011;10236;49.638;6.830;2023-04-03T06:24:26;5.20;;;2.77;;
20150;SDS011;10236;49.638;6.830;2023-04-03T06:30:20;6.20;;;3.03;;
20150;SDS011;10236;49.638;6.830;2023-04-03T06:33:09;5.97;;;2.97;;
20150;SDS011;10236;49.638;6.830;2023-04-03T06:35:35;6.00;;;2.50;;
20150;SDS011;10236;49.638;6.830;2023-04-03T06:38:07;5.50;;;2.60;;
20150;SDS011;10236;49.638;6.830;2023-04-03T06:40:36;6.67;;;2.73;;
20150;SDS011;10236;49.638;6.830;2023-04-03T06:43:05;5.27;;;2.97;;
20150;SDS011;10236;49.638;6.830;2023-04-03T06:48:59;8.23;;;2.87;;
20150;SDS011;10236;49.638;6.830;2023-04-03T06:51:26;12.93;;;5.23;;
20150;SDS011;10236;49.638;6.830;2023-04-03T06:53:53;11.87;;;3.73;;
20150;SDS011;10236;49.638;6.830;2023-04-03T06:59:15;7.20;;;3.70;;
20150;SDS011;10236;49.638;6.830;2023-04-03T07:01:50;9.27;;;3.77;;
20150;SDS011;10236;49.638;6.830;2023-04-03T07:07:11;10.53;;;4.57;;
20150;SDS011;10236;49.638;6.830;2023-04-03T07:09:42;15.43;;;5.97;;
20150;SDS011;10236;49.638;6.830;2023-04-03T07:12:09;5.20;;;3.10;;
20150;SDS011;10236;49.638;6.830;2023-04-03T07:17:58;5.23;;;2.80;;
20150;SDS011;10236;49.638;6.830;2023-04-03T07:20:24;10.63;;;3.30;;
20150;SDS011;10236;49.638;6.830;2023-04-03T07:22:51;9.60;;;3.67;;
20150;SDS011;10236;49.638;6.830;2023-04-03T07:25:17;5.77;;;2.50;;
20150;SDS011;10236;49.638;6.830;2023-04-03T07:27:43;4.87;;;2.07;;
20150;SDS011;10236;49.638;6.830;2023-04-03T07:30:09;8.13;;;2.57;;
20150;SDS011;10236;49.638;6.830;2023-04-03T07:32:35;6.70;;;2.70;;
20150;SDS011;10236;49.638;6.830;2023-04-03T07:35:01;6.10;;;2.63;;
20150;SDS011;10236;49.638;6.830;2023-04-03T07:37:27;6.43;;;2.20;;
20150;SDS011;10236;49.638;6.830;2023-04-03T07:39:53;4.47;;;2.37;;
20150;SDS011;10236;49.638;6.830;2023-04-03T07:42:20;5.47;;;2.10;;
20150;SDS011;10236;49.638;6.830;2023-04-03T07:44:46;6.23;;;2.17;;
20150;SDS011;10236;49.638;6.830;2023-04-03T07:47:12;6.20;;;2.60;;
20150;SDS011;10236;49.638;6.830;2023-04-03T07:52:22;4.27;;;1.80;;
20150;SDS011;10236;49.638;6.830;2023-04-03T07:54:54;5.20;;;2.03;;
20150;SDS011;10236;49.638;6.830;2023-04-03T08:00:33;5.77;;;2.47;;
20150;SDS011;10236;49.638;6.830;2023-04-03T08:03:19;18.13;;;5.13;;
20150;SDS011;10236;49.638;6.830;2023-04-03T08:06:05;4.60;;;2.23;;
20150;SDS011;10236;49.638;6.830;2023-04-03T08:21:02;8.60;;;3.97;;
20150;SDS011;10236;49.638;6.830;2023-04-03T08:23:51;7.30;;;2.80;;
20150;SDS011;10236;49.638;6.830;2023-04-03T08:30:00;6.07;;;2.97;;
20150;SDS011;10236;49.638;6.830;2023-04-03T08:32:28;6.23;;;2.13;;
20150;SDS011;10236;49.638;6.830;2023-04-03T08:34:55;4.60;;;2.53;;
20150;SDS011;10236;49.638;6.830;2023-04-03T08:37:28;9.47;;;3.23;;
20150;SDS011;10236;49.638;6.830;2023-04-03T08:40:24;4.87;;;2.40;;
20150;SDS011;10236;49.638;6.830;2023-04-03T08:48:40;4.43;;;2.67;;
20150;SDS011;10236;49.638;6.830;2023-04-03T08:51:16;6.03;;;2.70;;
20150;SDS011;10236;49.638;6.830;2023-04-03T08:59:19;3.80;;;1.57;;
20150;SDS011;10236;49.638;6.830;2023-04-03T09:26:23;6.53;;;2.87;;
20150;SDS011;10236;49.638;6.830;2023-04-03T09:28:51;9.57;;;4.57;;
20150;SDS011;10236;49.638;6.830;2023-04-03T09:31:29;17.53;;;7.33;;
20150;SDS011;10236;49.638;6.830;2023-04-03T09:33:59;5.23;;;1.80;;
20150;SDS011;10236;49.638;6.830;2023-04-03T09:39:23;5.27;;;2.40;;
20150;SDS011;10236;49.638;6.830;2023-04-03T09:42:03;5.77;;;2.77;;
20150;SDS011;10236;49.638;6.830;2023-04-03T09:44:36;5.97;;;1.90;;
20150;SDS011;10236;49.638;6.830;2023-04-03T09:52:48;4.30;;;1.47;;
20150;SDS011;10236;49.638;6.830;2023-04-03T09:57:40;4.37;;;1.70;;
20150;SDS011;10236;49.638;6.830;2023-04-03T10:00:24;4.13;;;1.60;;
20150;SDS011;10236;49.638;6.830;2023-04-03T10:02:54;1.83;;;1.40;;
20150;SDS011;10236;49.638;6.830;2023-04-03T10:08:30;3.40;;;1.30;;
20150;SDS011;10236;49.638;6.830;2023-04-03T10:14:19;3.00;;;1.23;;
20150;SDS011;10236;49.638;6.830;2023-04-03T10:16:57;4.07;;;1.57;;
20150;SDS011;10236;49.638;6.830;2023-04-03T10:22:30;1.93;;;1.10;;
20150;SDS011;10236;49.638;6.830;2023-04-03T10:27:59;2.97;;;1.60;;
20150;SDS011;10236;49.638;6.830;2023-04-03T10:30:42;2.83;;;1.60;;
20150;SDS011;10236;49.638;6.830;2023-04-03T10:35:53;4.63;;;1.43;;
20150;SDS011;10236;49.638;6.830;2023-04-03T10:41:56;2.70;;;1.20;;
20150;SDS011;10236;49.638;6.830;2023-04-03T10:47:13;3.47;;;1.30;;
20150;SDS011;10236;49.638;6.830;2023-04-03T10:54:42;3.93;;;1.60;;
20150;SDS011;10236;49.638;6.830;2023-04-03T10:57:11;3.70;;;1.20;;
20150;SDS011;10236;49.638;6.830;2023-04-03T11:02:05;3.93;;;1.60;;
20150;SDS011;10236;49.638;6.830;2023-04-03T11:04:34;3.13;;;1.27;;
20150;SDS011;10236;49.638;6.830;2023-04-03T11:07:12;3.93;;;1.23;;
20150;SDS011;10236;49.638;6.830;2023-04-03T11:09:41;3.77;;;1.30;;
20150;SDS011;10236;49.638;6.830;2023-04-03T11:14:35;5.47;;;1.43;;
20150;SDS011;10236;49.638;6.830;2023-04-03T11:19:34;3.87;;;1.47;;
20150;SDS011;10236;49.638;6.830;2023-04-03T11:22:03;2.20;;;1.23;;
20150;SDS011;10236;49.638;6.830;2023-04-03T11:24:31;5.00;;;1.30;;
20150;SDS011;10236;49.638;6.830;2023-04-03T11:26:58;2.70;;;1.20;;
20150;SDS011;10236;49.638;6.830;2023-04-03T11:29:29;2.60;;;1.30;;
20150;SDS011;10236;49.638;6.830;2023-04-03T11:34:37;4.10;;;1.27;;
20150;SDS011;10236;49.638;6.830;2023-04-03T11:37:51;3.00;;;1.30;;
20150;SDS011;10236;49.638;6.830;2023-04-03T11:39:56;4.77;;;1.70;;
20150;SDS011;10236;49.638;6.830;2023-04-03T11:42:39;3.73;;;1.33;;
20150;SDS011;10236;49.638;6.830;2023-04-03T11:47:53;5.13;;;1.53;;
20150;SDS011;10236;49.638;6.830;2023-04-03T11:53:30;3.37;;;1.10;;
20150;SDS011;10236;49.638;6.830;2023-04-03T11:56:00;5.60;;;1.47;;
20150;SDS011;10236;49.638;6.830;2023-04-03T11:58:33;6.60;;;1.60;;
20150;SDS011;10236;49.638;6.830;2023-04-03T12:01:06;3.33;;;1.10;;
20150;SDS011;10236;49.638;6.830;2023-04-03T12:03:56;3.57;;;1.03;;
20150;SDS011;10236;49.638;6.830;2023-04-03T12:08:45;4.70;;;1.10;;
20150;SDS011;10236;49.638;6.830;2023-04-03T12:16:33;3.83;;;1.00;;
20150;SDS011;10236;49.638;6.830;2023-04-03T12:26:47;5.33;;;1.40;;
20150;SDS011;10236;49.638;6.830;2023-04-03T12:29:21;4.43;;;1.70;;
20150;SDS011;10236;49.638;6.830;2023-04-03T12:34:38;2.40;;;0.83;;
20150;SDS011;10236;49.638;6.830;2023-04-03T12:37:09;3.77;;;0.97;;
20150;SDS011;10236;49.638;6.830;2023-04-03T12:42:35;2.77;;;1.00;;
20150;SDS011;10236;49.638;6.830;2023-04-03T12:47:32;3.77;;;1.40;;
20150;SDS011;10236;49.638;6.830;2023-04-03T12:50:02;3.33;;;1.10;;
20150;SDS011;10236;49.638;6.830;2023-04-03T12:52:33;2.70;;;1.10;;
20150;SDS011;10236;49.638;6.830;2023-04-03T12:55:01;4.83;;;1.03;;
20150;SDS011;10236;49.638;6.830;2023-04-03T12:57:29;5.13;;;1.40;;
20150;SDS011;10236;49.638;6.830;2023-04-03T12:59:55;4.77;;;1.30;;
20150;SDS011;10236;49.638;6.830;2023-04-03T13:04:48;6.10;;;1.30;;
20150;SDS011;10236;49.638;6.830;2023-04-03T13:07:34;4.13;;;1.17;;
20150;SDS011;10236;49.638;6.830;2023-04-03T13:12:32;2.93;;;1.00;;
20150;SDS011;10236;49.638;6.830;2023-04-03T13:15:00;1.90;;;0.87;;
20150;SDS011;10236;49.638;6.830;2023-04-03T13:17:29;4.17;;;1.00;;
20150;SDS011;10236;49.638;6.830;2023-04-03T13:19:54;3.10;;;1.10;;
20150;SDS011;10236;49.638;6.830;2023-04-03T13:24:50;5.17;;;1.17;;
20150;SDS011;10236;49.638;6.830;2023-04-03T13:27:17;2.97;;;1.50;;
20150;SDS011;10236;49.638;6.830;2023-04-03T13:29:43;3.93;;;1.13;;
20150;SDS011;10236;49.638;6.830;2023-04-03T13:32:20;3.47;;;1.20;;
20150;SDS011;10236;49.638;6.830;2023-04-03T13:34:47;1.87;;;1.13;;
20150;SDS011;10236;49.638;6.830;2023-04-03T13:37:27;2.93;;;1.03;;
20150;SDS011;10236;49.638;6.830;2023-04-03T13:39:57;2.17;;;1.20;;
20150;SDS011;10236;49.638;6.830;2023-04-03T13:42:25;4.23;;;1.30;;
20150;SDS011;10236;49.638;6.830;2023-04-03T13:45:11;2.17;;;1.13;;
20150;SDS011;10236;49.638;6.830;2023-04-03T13:47:42;3.60;;;1.10;;
20150;SDS011;10236;49.638;6.830;2023-04-03T13:52:41;3.33;;;1.20;;
20150;SDS011;10236;49.638;6.830;2023-04-03T13:57:51;3.23;;;1.10;;
20150;SDS011;10236;49.638;6.830;2023-04-03T14:01:01;5.10;;;1.57;;
20150;SDS011;10236;49.638;6.830;2023-04-03T14:03:16;2.73;;;1.30;;
20150;SDS011;10236;49.638;6.830;2023-04-03T14:05:44;3.83;;;1.30;;
20150;SDS011;10236;49.638;6.830;2023-04-03T14:08:10;2.43;;;1.20;;
20150;SDS011;10236;49.638;6.830;2023-04-03T14:10:36;5.07;;;1.50;;
20150;SDS011;10236;49.638;6.830;2023-04-03T14:13:03;7.27;;;2.73;;
20150;SDS011;10236;49.638;6.830;2023-04-03T14:15:29;3.57;;;1.80;;
20150;SDS011;10236;49.638;6.830;2023-04-03T14:17:56;4.57;;;1.30;;
20150;SDS011;10236;49.638;6.830;2023-04-03T14:20:24;3.50;;;1.20;;
20150;SDS011;10236;49.638;6.830;2023-04-03T14:22:51;3.07;;;1.20;;
20150;SDS011;10236;49.638;6.830;2023-04-03T14:25:18;3.00;;;1.10;;
20150;SDS011;10236;49.638;6.830;2023-04-03T14:27:48;3.13;;;1.40;;
20150;SDS011;10236;49.638;6.830;2023-04-03T14:30:22;2.43;;;1.10;;
20150;SDS011;10236;49.638;6.830;2023-04-03T14:32:49;3.10;;;1.30;;
20150;SDS011;10236;49.638;6.830;2023-04-03T14:35:15;4.43;;;1.40;;
20150;SDS011;10236;49.638;6.830;2023-04-03T14:37:41;6.17;;;1.50;;
20150;SDS011;10236;49.638;6.830;2023-04-03T14:40:08;1.47;;;1.10;;
20150;SDS011;10236;49.638;6.830;2023-04-03T14:42:35;3.30;;;1.43;;
20150;SDS011;10236;49.638;6.830;2023-04-03T14:45:03;2.47;;;1.30;;
20150;SDS011;10236;49.638;6.830;2023-04-03T14:47:29;2.53;;;1.50;;
20150;SDS011;10236;49.638;6.830;2023-04-03T14:49:55;4.20;;;1.60;;
20150;SDS011;10236;49.638;6.830;2023-04-03T14:52:23;6.07;;;3.13;;
20150;SDS011;10236;49.638;6.830;2023-04-03T14:54:49;2.93;;;1.33;;
20150;SDS011;10236;49.638;6.830;2023-04-03T14:57:16;1.87;;;1.10;;
20150;SDS011;10236;49.638;6.830;2023-04-03T14:59:45;2.87;;;1.30;;
20150;SDS011;10236;49.638;6.830;2023-04-03T15:02:20;2.50;;;1.20;;
20150;SDS011;10236;49.638;6.830;2023-04-03T15:04:50;3.83;;;1.37;;
20150;SDS011;10236;49.638;6.830;2023-04-03T15:07:15;4.23;;;2.30;;
20150;SDS011;10236;49.638;6.830;2023-04-03T15:09:42;6.13;;;1.93;;
20150;SDS011;10236;49.638;6.830;2023-04-03T15:12:08;8.43;;;2.27;;
20150;SDS011;10236;49.638;6.830;2023-04-03T15:14:35;3.10;;;1.33;;
20150;SDS011;10236;49.638;6.830;2023-04-03T15:17:01;4.17;;;1.73;;
20150;SDS011;10236;49.638;6.830;2023-04-03T15:19:27;4.50;;;1.20;;
20150;SDS011;10236;49.638;6.830;2023-04-03T15:21:53;4.97;;;1.73;;
20150;SDS011;10236;49.638;6.830;2023-04-03T15:24:20;5.97;;;2.03;;
20150;SDS011;10236;49.638;6.830;2023-04-03T15:26:46;2.83;;;1.30;;
20150;SDS011;10236;49.638;6.830;2023-04-03T15:29:12;2.27;;;1.17;;
20150;SDS011;10236;49.638;6.830;2023-04-03T15:31:37;4.60;;;1.43;;
20150;SDS011;10236;49.638;6.830;2023-04-03T15:34:03;3.47;;;1.67;;
20150;SDS011;10236;49.638;6.830;2023-04-03T15:36:30;3.57;;;1.70;;
20150;SDS011;10236;49.638;6.830;2023-04-03T15:38:55;4.17;;;1.53;;
20150;SDS011;10236;49.638;6.830;2023-04-03T15:41:21;2.83;;;1.50;;
20150;SDS011;10236;49.638;6.830;2023-04-03T15:43:47;4.70;;;1.27;;
20150;SDS011;10236;49.638;6.830;2023-04-03T15:46:13;4.73;;;2.23;;
20150;SDS011;10236;49.638;6.830;2023-04-03T15:48:40;8.03;;;3.13;;
20150;SDS011;10236;49.638;6.830;2023-04-03T15:51:06;3.10;;;1.70;;
20150;SDS011;10236;49.638;6.830;2023-04-03T15:53:32;6.87;;;1.60;;
20150;SDS011;10236;49.638;6.830;2023-04-03T15:55:58;4.70;;;1.73;;
20150;SDS011;10236;49.638;6.830;2023-04-03T15:58:24;3.10;;;1.70;;
20150;SDS011;10236;49.638;6.830;2023-04-03T16:00:50;3.03;;;1.83;;
20150;SDS011;10236;49.638;6.830;2023-04-03T16:03:17;5.50;;;1.60;;
20150;SDS011;10236;49.638;6.830;2023-04-03T16:05:43;3.17;;;1.43;;
20150;SDS011;10236;49.638;6.830;2023-04-03T16:08:10;6.13;;;2.13;;
20150;SDS011;10236;49.638;6.830;2023-04-03T16:10:36;2.97;;;1.20;;
20150;SDS011;10236;49.638;6.830;2023-04-03T16:13:02;5.27;;;1.57;;
20150;SDS011;10236;49.638;6.830;2023-04-03T16:15:29;3.57;;;1.37;;
20150;SDS011;10236;49.638;6.830;2023-04-03T16:17:55;2.90;;;1.23;;
20150;SDS011;10236;49.638;6.830;2023-04-03T16:20:21;12.87;;;7.20;;
20150;SDS011;10236;49.638;6.830;2023-04-03T16:22:47;5.13;;;2.07;;
20150;SDS011;10236;49.638;6.830;2023-04-03T16:25:13;4.63;;;1.80;;
20150;SDS011;10236;49.638;6.830;2023-04-03T16:27:39;2.43;;;2.00;;
20150;SDS011;10236;49.638;6.830;2023-04-03T16:30:06;5.17;;;2.30;;
20150;SDS011;10236;49.638;6.830;2023-04-03T16:32:32;3.77;;;2.23;;
20150;SDS011;10236;49.638;6.830;2023-04-03T16:34:58;3.57;;;1.80;;
20150;SDS011;10236;49.638;6.830;2023-04-03T16:37:25;3.63;;;1.80;;
20150;SDS011;10236;49.638;6.830;2023-04-03T16:39:51;5.57;;;2.50;;
20150;SDS011;10236;49.638;6.830;2023-04-03T16:42:17;3.90;;;2.10;;
20150;SDS011;10236;49.638;6.830;2023-04-03T16:44:43;3.73;;;1.90;;
20150;SDS011;10236;49.638;6.830;2023-04-03T16:47:09;11.87;;;2.30;;
20150;SDS011;10236;49.638;6.830;2023-04-03T16:49:35;4.33;;;1.90;;
20150;SDS011;10236;49.638;6.830;2023-04-03T16:52:02;3.47;;;2.17;;
20150;SDS011;10236;49.638;6.830;2023-04-03T16:54:28;4.90;;;2.83;;
20150;SDS011;10236;49.638;6.830;2023-04-03T16:56:55;3.20;;;1.40;;
20150;SDS011;10236;49.638;6.830;2023-04-03T16:59:21;3.20;;;1.90;;
20150;SDS011;10236;49.638;6.830;2023-04-03T17:01:47;3.93;;;1.80;;
20150;SDS011;10236;49.638;6.830;2023-04-03T17:04:13;2.50;;;1.30;;
20150;SDS011;10236;49.638;6.830;2023-04-03T17:06:40;5.23;;;1.90;;
20150;SDS011;10236;49.638;6.830;2023-04-03T17:09:12;4.80;;;2.93;;
20150;SDS011;10236;49.638;6.830;2023-04-03T17:11:45;4.10;;;2.30;;
20150;SDS011;10236;49.638;6.830;2023-04-03T17:14:11;5.13;;;2.07;;
20150;SDS011;10236;49.638;6.830;2023-04-03T17:16:37;5.83;;;2.23;;
20150;SDS011;10236;49.638;6.830;2023-04-03T17:19:07;2.33;;;1.53;;
20150;SDS011;10236;49.638;6.830;2023-04-03T17:21:36;5.43;;;1.93;;
20150;SDS011;10236;49.638;6.830;2023-04-03T17:24:05;2.97;;;1.60;;
20150;SDS011;10236;49.638;6.830;2023-04-03T17:26:33;3.93;;;1.60;;
20150;SDS011;10236;49.638;6.830;2023-04-03T17:29:04;3.03;;;1.50;;
20150;SDS011;10236;49.638;6.830;2023-04-03T17:31:30;3.60;;;1.60;;
20150;SDS011;10236;49.638;6.830;2023-04-03T17:33:57;3.17;;;1.40;;
20150;SDS011;10236;49.638;6.830;2023-04-03T17:36:26;3.50;;;1.87;;
20150;SDS011;10236;49.638;6.830;2023-04-03T17:38:55;5.47;;;1.80;;
20150;SDS011;10236;49.638;6.830;2023-04-03T17:41:21;3.03;;;1.47;;
20150;SDS011;10236;49.638;6.830;2023-04-03T17:43:51;3.63;;;1.17;;
20150;SDS011;10236;49.638;6.830;2023-04-03T17:46:21;2.27;;;1.43;;
20150;SDS011;10236;49.638;6.830;2023-04-03T17:48:50;3.83;;;1.50;;
20150;SDS011;10236;49.638;6.830;2023-04-03T17:51:18;3.37;;;1.27;;
20150;SDS011;10236;49.638;6.830;2023-04-03T17:53:45;1.90;;;1.20;;
20150;SDS011;10236;49.638;6.830;2023-04-03T17:56:15;2.67;;;1.30;;
20150;SDS011;10236;49.638;6.830;2023-04-03T17:58:49;2.63;;;1.63;;
20150;SDS011;10236;49.638;6.830;2023-04-03T18:01:26;2.80;;;1.60;;
20150;SDS011;10236;49.638;6.830;2023-04-03T18:04:02;3.67;;;1.40;;
20150;SDS011;10236;49.638;6.830;2023-04-03T18:06:29;4.80;;;1.57;;
20150;SDS011;10236;49.638;6.830;2023-04-03T18:08:57;3.47;;;1.70;;
20150;SDS011;10236;49.638;6.830;2023-04-03T18:11:29;2.93;;;1.50;;
20150;SDS011;10236;49.638;6.830;2023-04-03T18:13:56;2.77;;;1.60;;
20150;SDS011;10236;49.638;6.830;2023-04-03T18:16:23;2.77;;;1.50;;
20150;SDS011;10236;49.638;6.830;2023-04-03T18:18:49;4.37;;;1.50;;
20150;SDS011;10236;49.638;6.830;2023-04-03T18:21:15;3.67;;;1.30;;
20150;SDS011;10236;49.638;6.830;2023-04-03T18:23:42;2.83;;;1.43;;
20150;SDS011;10236;49.638;6.830;2023-04-03T18:26:09;4.03;;;1.73;;
20150;SDS011;10236;49.638;6.830;2023-04-03T18:28:38;3.50;;;1.70;;
20150;SDS011;10236;49.638;6.830;2023-04-03T18:31:05;11.97;;;7.70;;
20150;SDS011;10236;49.638;6.830;2023-04-03T18:33:37;23.63;;;12.43;;
20150;SDS011;10236;49.638;6.830;2023-04-03T18:36:04;16.50;;;8.93;;
20150;SDS011;10236;49.638;6.830;2023-04-03T18:38:30;8.57;;;3.90;;
20150;SDS011;10236;49.638;6.830;2023-04-03T18:40:56;5.03;;;2.67;;
20150;SDS011;10236;49.638;6.830;2023-04-03T18:43:22;5.23;;;4.53;;
20150;SDS011;10236;49.638;6.830;2023-04-03T18:45:50;19.13;;;12.07;;
20150;SDS011;10236;49.638;6.830;2023-04-03T18:48:16;7.57;;;5.83;;
20150;SDS011;10236;49.638;6.830;2023-04-03T18:50:42;4.63;;;3.53;;
20150;SDS011;10236;49.638;6.830;2023-04-03T18:53:09;6.43;;;2.00;;
20150;SDS011;10236;49.638;6.830;2023-04-03T18:55:35;4.03;;;1.93;;
20150;SDS011;10236;49.638;6.830;2023-04-03T18:58:01;5.27;;;2.27;;
20150;SDS011;10236;49.638;6.830;2023-04-03T19:00:27;3.50;;;1.70;;
20150;SDS011;10236;49.638;6.830;2023-04-03T19:02:53;2.60;;;1.70;;
20150;SDS011;10236;49.638;6.830;2023-04-03T19:05:19;5.07;;;2.33;;
20150;SDS011;10236;49.638;6.830;2023-04-03T19:07:46;4.90;;;2.50;;
20150;SDS011;10236;49.638;6.830;2023-04-03T19:10:13;9.13;;;5.30;;
20150;SDS011;10236;49.638;6.830;2023-04-03T19:12:44;11.50;;;7.27;;
20150;SDS011;10236;49.638;6.830;2023-04-03T19:15:13;6.27;;;4.60;;
20150;SDS011;10236;49.638;6.830;2023-04-03T19:17:40;6.83;;;3.70;;
20150;SDS011;10236;49.638;6.830;2023-04-03T19:20:06;7.13;;;4.53;;
20150;SDS011;10236;49.638;6.830;2023-04-03T19:22:33;8.57;;;5.10;;
20150;SDS011;10236;49.638;6.830;2023-04-03T19:24:59;7.57;;;5.43;;
20150;SDS011;10236;49.638;6.830;2023-04-03T19:27:25;11.03;;;6.23;;
20150;SDS011;10236;49.638;6.830;2023-04-03T19:29:51;7.87;;;4.70;;
20150;SDS011;10236;49.638;6.830;2023-04-03T19:32:17;8.20;;;4.50;;
20150;SDS011;10236;49.638;6.830;2023-04-03T19:34:43;7.97;;;4.90;;
20150;SDS011;10236;49.638;6.830;2023-04-03T19:37:09;8.33;;;4.30;;
20150;SDS011;10236;49.638;6.830;2023-04-03T19:39:36;7.40;;;4.23;;
20150;SDS011;10236;49.638;6.830;2023-04-03T19:42:02;7.60;;;3.90;;
20150;SDS011;10236;49.638;6.830;2023-04-03T19:44:29;4.80;;;2.90;;
20150;SDS011;10236;49.638;6.830;2023-04-03T19:46:57;7.87;;;3.57;;
20150;SDS011;10236;49.638;6.830;2023-04-03T19:49:23;6.13;;;2.80;;
20150;SDS011;10236;49.638;6.830;2023-04-03T19:51:49;7.60;;;3.40;;
20150;SDS011;10236;49.638;6.830;2023-04-03T19:54:17;4.77;;;2.30;;
20150;SDS011;10236;49.638;6.830;2023-04-03T19:56:43;9.77;;;4.37;;
20150;SDS011;10236;49.638;6.830;2023-04-03T19:59:09;6.60;;;3.00;;